Observations for SHOREHAM-BY-SEA, United Kingdom (EGKA)

EGKA 181820Z 22013KT 9999 FEW016 18/16 Q1013
EGKA 181750Z 22013KT 9000 FEW014 SCT025 18/16 Q1013 
EGKA 181720Z 22014KT 9000 FEW012 SCT016 18/16 Q1013 
EGKA 181650Z 22014KT 9000 SCT012 BKN016 18/16 Q1013 
EGKA 181620Z 22014KT 9000 SCT012 BKN025 19/16 Q1013 
EGKA 181550Z 23016G26KT 9000 FEW012 SCT025 19/16 Q1013  
EGKA 181520Z 23020G30KT 9000 FEW012 SCT025 19/16 Q1013  
EGKA 181450Z 23020G30KT 9000 FEW012 BKN025 19/16 Q1013  
EGKA 181420Z 23018G28KT 8000 FEW012 BKN025 19/16 Q1012  
EGKA 181350Z 23018G28KT 8000 FEW015 BKN025 19/16 Q1012  
EGKA 181320Z 23018G28KT 8000 FEW013 BKN025 19/15 Q1012  
EGKA 181250Z 23020G30KT 9999 FEW013 BKN025 19/15 Q1012  
EGKA 181220Z 23018G28KT 9999 FEW012 SCT022 19/15 Q1011  
EGKA 181150Z 22019KT 9999 FEW010 SCT020 19/16 Q1011 
EGKA 181120Z 23019KT 9999 FEW010 BKN020 18/14 Q1011 
EGKA 181050Z 24019G29KT 9999 FEW010 BKN020 19/14 Q1011  
EGKA 181020Z 23015G25KT 9999 FEW010 BKN013 18/14 Q1011  
EGKA 180950Z 23017G27KT 7000 -RA BKN013 18/15 Q1010 
EGKA 180920Z 23020KT 7000 -RA BKN013 18/15 Q1010
EGKA 180850Z 23020KT 6000 SCT013 BKN015 18/14 Q1009 
EGKA 180820Z 23023G33KT 6000 -DZ SCT013 BKN015 18/14 Q1009  
EGKA 180750Z 23021KT 7000 -DZ SCT010 BKN018 17/15 Q1008 
EGKA 180720Z 22024KT 7000 -DZ SCT010 BKN018 18/15 Q1008 
EGKA 180650Z 23022KT 7000 -DZ SCT010 BKN018 17/16 Q1008